createdAt,value
2018-11-21T00:01:42.200Z,29.57
2018-11-21T00:07:09.860Z,28.30
2018-11-21T00:09:39.462Z,28.63
2018-11-21T00:12:28.230Z,28.23
2018-11-21T00:14:57.596Z,29.23
2018-11-21T00:20:28.471Z,26.43
2018-11-21T00:22:57.645Z,24.37
2018-11-21T00:25:26.917Z,27.53
2018-11-21T00:27:56.242Z,28.07
2018-11-21T00:30:25.517Z,28.40
2018-11-21T00:32:54.804Z,25.70
2018-11-21T00:35:24.113Z,27.70
2018-11-21T00:37:53.424Z,26.60
2018-11-21T00:40:22.696Z,27.43
2018-11-21T00:45:26.602Z,28.23
2018-11-21T00:47:55.956Z,28.93
2018-11-21T00:50:25.437Z,27.00
2018-11-21T00:52:54.675Z,27.53
2018-11-21T00:55:24.017Z,26.87
2018-11-21T00:57:53.247Z,28.53
2018-11-21T01:00:22.586Z,28.80
2018-11-21T01:02:51.894Z,31.13
2018-11-21T01:05:21.149Z,31.10
2018-11-21T01:08:09.696Z,30.17
2018-11-21T01:10:38.952Z,29.60
2018-11-21T01:13:08.188Z,29.17
2018-11-21T01:15:57.088Z,29.97
2018-11-21T01:18:26.511Z,29.40
2018-11-21T01:20:55.761Z,29.20
2018-11-21T01:26:18.990Z,29.97
2018-11-21T01:28:48.288Z,29.17
2018-11-21T01:31:17.565Z,30.87
2018-11-21T01:34:06.030Z,29.80
2018-11-21T01:36:35.451Z,29.97
2018-11-21T01:39:05.681Z,28.10
2018-11-21T01:41:35.097Z,26.80
2018-11-21T01:44:04.367Z,27.83
2018-11-21T01:49:46.627Z,25.70
2018-11-21T01:52:15.973Z,27.47
2018-11-21T01:54:45.318Z,28.93
2018-11-21T01:57:14.470Z,28.90
2018-11-21T02:00:03.038Z,27.93
2018-11-21T02:02:32.347Z,27.67
2018-11-21T02:05:01.570Z,29.37
2018-11-21T02:07:31.004Z,29.00
2018-11-21T02:10:19.379Z,28.67
2018-11-21T02:12:48.722Z,27.50
2018-11-21T02:15:18.030Z,26.80
2018-11-21T02:18:26.407Z,28.57
2018-11-21T02:20:55.675Z,30.03
2018-11-21T02:23:24.899Z,28.90
2018-11-21T02:25:54.223Z,28.77
2018-11-21T02:28:23.531Z,31.07
2018-11-21T02:30:52.782Z,29.00
2018-11-21T02:33:22.165Z,30.33
2018-11-21T02:35:51.435Z,26.03
2018-11-21T02:38:20.727Z,29.77
2018-11-21T02:40:50.066Z,24.47
2018-11-21T02:43:19.288Z,25.70
2018-11-21T02:45:48.544Z,24.27
2018-11-21T02:48:17.878Z,23.77
2018-11-21T02:50:47.188Z,24.23
2018-11-21T02:53:16.414Z,23.30
2018-11-21T02:56:05.680Z,23.10
2018-11-21T03:01:21.155Z,23.27
2018-11-21T03:03:50.385Z,23.23
2018-11-21T03:06:19.616Z,23.43
2018-11-21T03:11:24.056Z,22.20
2018-11-21T03:13:53.367Z,22.00
2018-11-21T03:16:22.580Z,21.60
2018-11-21T03:19:11.849Z,23.67
2018-11-21T03:21:41.091Z,21.23
2018-11-21T03:24:10.352Z,22.60
2018-11-21T03:26:40.664Z,22.47
2018-11-21T03:32:23.135Z,23.10
2018-11-21T03:34:52.411Z,22.00
2018-11-21T03:37:40.644Z,20.73
2018-11-21T03:40:11.698Z,21.70
2018-11-21T03:43:00.223Z,20.73
2018-11-21T03:45:29.504Z,19.47
2018-11-21T03:47:58.849Z,21.37
2018-11-21T03:53:22.116Z,19.23
2018-11-21T03:55:51.773Z,19.03
2018-11-21T03:58:21.328Z,20.60
2018-11-21T04:01:09.862Z,20.60
2018-11-21T04:03:51.454Z,19.83
2018-11-21T04:09:18.783Z,19.73
2018-11-21T04:12:07.630Z,20.43
2018-11-21T04:14:36.979Z,20.70
2018-11-21T04:17:06.542Z,18.50
2018-11-21T04:19:35.833Z,19.77
2018-11-21T04:22:24.458Z,22.17
2018-11-21T04:24:53.717Z,19.70
2018-11-21T04:27:22.998Z,20.37
2018-11-21T04:32:27.920Z,20.50
2018-11-21T04:34:57.293Z,20.33
2018-11-21T04:37:26.631Z,20.87
2018-11-21T04:39:55.951Z,22.23
2018-11-21T04:42:44.481Z,21.30
2018-11-21T04:45:13.786Z,21.50
2018-11-21T04:47:43.478Z,19.73
2018-11-21T04:50:12.765Z,19.43
2018-11-21T04:53:01.211Z,18.10
2018-11-21T04:55:30.846Z,18.73
2018-11-21T04:58:00.126Z,19.10
2018-11-21T05:00:29.447Z,18.97
2018-11-21T05:02:58.758Z,19.03
2018-11-21T05:05:28.320Z,19.63
2018-11-21T05:07:57.590Z,19.00
2018-11-21T05:10:26.950Z,20.33
2018-11-21T05:12:56.461Z,19.87
2018-11-21T05:15:25.909Z,20.97
2018-11-21T05:17:55.324Z,21.83
2018-11-21T05:20:24.631Z,22.10
2018-11-21T05:22:53.881Z,21.50
2018-11-21T05:25:23.688Z,21.97
2018-11-21T05:30:47.387Z,22.00
2018-11-21T05:33:16.673Z,20.27
2018-11-21T05:35:46.042Z,22.17
2018-11-21T05:40:51.038Z,24.63
2018-11-21T05:43:20.382Z,38.93
2018-11-21T05:48:40.391Z,27.43
2018-11-21T05:51:09.651Z,18.10
2018-11-21T05:53:38.906Z,19.03
2018-11-21T05:56:08.219Z,18.20
2018-11-21T05:58:56.643Z,18.50
2018-11-21T06:01:26.039Z,18.50
2018-11-21T06:03:55.722Z,19.87
2018-11-21T06:06:44.247Z,16.80
2018-11-21T06:09:13.906Z,18.40
2018-11-21T06:11:43.636Z,18.30
2018-11-21T06:14:13.031Z,15.23
2018-11-21T06:22:06.945Z,14.13
2018-11-21T06:24:36.896Z,13.10
2018-11-21T06:27:06.196Z,14.53
2018-11-21T06:29:35.449Z,19.13
2018-11-21T06:34:59.092Z,14.83
2018-11-21T06:37:28.560Z,14.43
2018-11-21T06:43:02.874Z,15.70
2018-11-21T06:45:32.115Z,15.53
2018-11-21T06:48:01.386Z,15.90
2018-11-21T06:50:30.695Z,13.40
2018-11-21T06:53:00.231Z,13.60
2018-11-21T06:55:29.544Z,13.40
2018-11-21T06:57:58.939Z,14.13
2018-11-21T07:00:28.287Z,17.00
2018-11-21T07:02:58.112Z,12.53
2018-11-21T07:05:46.770Z,14.07
2018-11-21T07:08:16.122Z,12.73
2018-11-21T07:10:45.393Z,13.10
2018-11-21T07:13:14.782Z,13.70
2018-11-21T07:15:44.122Z,15.60
2018-11-21T07:18:14.194Z,11.33
2018-11-21T07:20:43.566Z,13.50
2018-11-21T07:23:32.068Z,13.70
2018-11-21T07:26:01.488Z,13.40
2018-11-21T07:28:50.001Z,13.47
2018-11-21T07:31:19.828Z,9.37
2018-11-21T07:33:49.256Z,9.87
2018-11-21T07:36:18.495Z,10.27
2018-11-21T07:41:23.087Z,10.70
2018-11-21T07:43:52.746Z,10.40
2018-11-21T07:46:22.016Z,11.53
2018-11-21T07:48:51.328Z,10.67
2018-11-21T07:51:20.582Z,8.30
2018-11-21T07:53:49.816Z,8.40
2018-11-21T07:56:57.441Z,7.80
2018-11-21T08:02:32.005Z,10.40
2018-11-21T08:05:06.249Z,10.83
2018-11-21T08:07:55.214Z,10.37
2018-11-21T08:10:43.395Z,9.40
2018-11-21T08:13:51.104Z,9.20
2018-11-21T08:19:34.070Z,11.27
2018-11-21T08:22:22.159Z,8.40
2018-11-21T08:30:38.948Z,10.50
2018-11-21T08:33:10.257Z,11.73
2018-11-21T08:35:39.491Z,10.00
2018-11-21T08:41:00.634Z,30.07
2018-11-21T08:43:29.957Z,14.93
2018-11-21T08:45:59.283Z,11.97
2018-11-21T08:48:47.339Z,11.33
2018-11-21T08:54:18.437Z,9.63
2018-11-21T08:56:48.943Z,9.50
2018-11-21T08:59:18.258Z,8.67
2018-11-21T09:01:47.813Z,10.30
2018-11-21T09:04:17.152Z,13.20
2018-11-21T09:06:46.437Z,12.20
2018-11-21T09:11:50.911Z,12.67
2018-11-21T09:14:20.272Z,10.43
2018-11-21T09:16:49.630Z,10.37
2018-11-21T09:19:18.930Z,10.20
2018-11-21T09:21:48.665Z,10.83
2018-11-21T09:24:49.022Z,10.30
2018-11-21T09:29:52.886Z,11.73
2018-11-21T09:32:22.177Z,10.87
2018-11-21T09:34:51.403Z,10.17
2018-11-21T09:37:39.894Z,11.67
2018-11-21T09:42:56.099Z,11.40
2018-11-21T09:45:45.163Z,11.80
2018-11-21T09:48:26.560Z,10.50
2018-11-21T09:51:07.601Z,10.83
2018-11-21T09:53:36.931Z,11.00
2018-11-21T09:56:06.466Z,12.40
2018-11-21T09:58:35.789Z,11.60
2018-11-21T10:01:43.447Z,11.90
2018-11-21T10:04:12.739Z,12.50
2018-11-21T10:06:43.761Z,10.73
2018-11-21T10:09:15.635Z,13.73
2018-11-21T10:14:39.060Z,12.70
2018-11-21T10:17:08.330Z,13.97
2018-11-21T10:19:37.623Z,15.17
2018-11-21T10:22:06.977Z,16.80
2018-11-21T10:24:36.288Z,16.83
2018-11-21T10:30:08.108Z,17.47
2018-11-21T10:32:37.414Z,13.73
2018-11-21T10:35:06.893Z,15.03
2018-11-21T10:37:36.292Z,13.63
2018-11-21T10:40:06.592Z,14.47
2018-11-21T10:42:35.914Z,15.53
2018-11-21T10:45:05.571Z,18.10
2018-11-21T10:47:54.435Z,17.30
2018-11-21T10:50:23.812Z,16.00
2018-11-21T10:52:53.095Z,15.30
2018-11-21T10:55:22.380Z,13.87
2018-11-21T10:57:51.681Z,15.90
2018-11-21T11:00:39.797Z,13.53
2018-11-21T11:03:28.132Z,14.87
2018-11-21T11:06:35.397Z,17.17
2018-11-21T11:09:26.089Z,15.17
2018-11-21T11:15:31.373Z,15.23
2018-11-21T11:21:36.467Z,14.30
2018-11-21T11:30:13.318Z,15.40
2018-11-21T11:33:01.466Z,15.30
2018-11-21T11:41:46.727Z,13.73
2018-11-21T11:44:34.778Z,15.03
2018-11-21T11:50:28.118Z,15.90
2018-11-21T11:53:16.267Z,14.33
2018-11-21T11:56:04.477Z,15.03
2018-11-21T11:58:52.521Z,18.00
2018-11-21T12:01:41.472Z,16.07
2018-11-21T12:04:48.700Z,13.93
2018-11-21T12:07:36.886Z,16.07
2018-11-21T12:10:44.152Z,16.47
2018-11-21T12:13:45.008Z,18.60
2018-11-21T12:16:33.077Z,18.30
2018-11-21T12:22:02.044Z,16.83
2018-11-21T12:24:50.122Z,19.30
2018-11-21T12:27:32.117Z,20.27
2018-11-21T12:33:19.556Z,20.67
2018-11-21T12:36:07.620Z,20.13
2018-11-21T12:41:55.137Z,21.40
2018-11-21T12:44:43.192Z,18.17
2018-11-21T12:47:51.270Z,21.93
2018-11-21T12:50:39.486Z,22.40
2018-11-21T12:53:27.660Z,19.23
2018-11-21T12:56:15.754Z,16.53
2018-11-21T12:59:03.955Z,21.50
2018-11-21T13:01:38.938Z,21.07
2018-11-21T13:04:27.954Z,22.30
2018-11-21T13:10:14.910Z,21.70
2018-11-21T13:13:03.169Z,24.20
2018-11-21T13:15:51.328Z,22.50
2018-11-21T13:18:39.437Z,27.83
2018-11-21T13:21:27.588Z,24.83
2018-11-21T13:24:15.705Z,19.47
2018-11-21T13:27:04.173Z,22.53
2018-11-21T13:29:52.275Z,19.87
2018-11-21T13:35:41.300Z,20.63
2018-11-21T13:38:29.454Z,22.90
2018-11-21T13:41:18.133Z,24.13
2018-11-21T13:44:06.312Z,23.80
2018-11-21T13:46:54.597Z,26.53
2018-11-21T13:49:42.691Z,30.87
2018-11-21T13:52:31.604Z,22.43
2018-11-21T13:55:02.007Z,28.10
2018-11-21T13:57:31.747Z,22.27
2018-11-21T14:00:01.888Z,23.93
2018-11-21T14:02:31.139Z,24.90
2018-11-21T14:05:19.637Z,22.10
2018-11-21T14:07:48.876Z,22.60
2018-11-21T14:10:18.108Z,29.23
2018-11-21T14:12:47.401Z,21.17
2018-11-21T14:15:16.718Z,22.47
2018-11-21T14:17:45.969Z,22.87
2018-11-21T14:22:49.970Z,20.00
2018-11-21T14:25:19.684Z,19.53
2018-11-21T14:28:08.018Z,28.67
2018-11-21T14:30:37.722Z,22.20
2018-11-21T14:33:07.455Z,15.30
2018-11-21T14:35:36.740Z,15.97
2018-11-21T14:38:06.091Z,15.10
2018-11-21T14:40:54.521Z,16.70
2018-11-21T14:43:23.853Z,14.70
2018-11-21T14:45:53.105Z,21.87
2018-11-21T14:48:22.413Z,14.43
2018-11-21T14:51:11.068Z,16.10
2018-11-21T14:56:39.705Z,16.20
2018-11-21T14:59:09.307Z,19.40
2018-11-21T15:01:57.782Z,16.37
2018-11-21T15:04:27.071Z,14.43
2018-11-21T15:06:56.370Z,15.07
2018-11-21T15:09:45.487Z,20.53
2018-11-21T15:12:14.769Z,18.00
2018-11-21T15:14:44.287Z,19.37
2018-11-21T15:19:47.862Z,15.80
2018-11-21T15:22:17.146Z,16.77
2018-11-21T15:25:05.838Z,16.97
2018-11-21T15:27:35.133Z,16.37
2018-11-21T15:30:05.096Z,16.73
2018-11-21T15:35:09.976Z,18.57
2018-11-21T15:37:40.103Z,20.70
2018-11-21T15:40:29.936Z,21.30
2018-11-21T15:42:59.201Z,24.93
2018-11-21T15:45:28.777Z,22.60
2018-11-21T15:48:18.199Z,25.37
2018-11-21T15:50:46.556Z,19.37
2018-11-21T15:53:15.805Z,13.47
2018-11-21T15:55:45.251Z,15.50
2018-11-21T15:58:14.759Z,14.47
2018-11-21T16:01:03.251Z,14.43
2018-11-21T16:03:32.575Z,14.40
2018-11-21T16:06:01.816Z,13.80
2018-11-21T16:08:31.156Z,18.37
2018-11-21T16:11:00.601Z,14.73
2018-11-21T16:13:30.004Z,17.67
2018-11-21T16:15:59.351Z,15.70
2018-11-21T16:18:29.003Z,18.57
2018-11-21T16:20:58.275Z,18.90
2018-11-21T16:23:28.419Z,18.27
2018-11-21T16:25:57.681Z,11.13
2018-11-21T16:28:26.979Z,10.47
2018-11-21T16:30:56.331Z,11.00
2018-11-21T16:33:25.657Z,13.37
2018-11-21T16:35:54.925Z,10.27
2018-11-21T16:40:59.794Z,11.03
2018-11-21T16:43:29.051Z,9.67
2018-11-21T16:45:59.079Z,14.60
2018-11-21T16:48:28.381Z,16.90
2018-11-21T16:50:57.984Z,28.00
2018-11-21T16:53:27.496Z,10.73
2018-11-21T16:55:57.742Z,27.10
2018-11-21T17:01:59.912Z,23.17
2018-11-21T17:04:49.604Z,11.10
2018-11-21T17:07:30.950Z,10.57
2018-11-21T17:10:12.792Z,11.30
2018-11-21T17:12:42.984Z,9.47
2018-11-21T17:15:33.502Z,10.57
2018-11-21T17:18:02.897Z,12.50
2018-11-21T17:20:37.400Z,13.30
2018-11-21T17:23:06.768Z,15.63
2018-11-21T17:30:46.471Z,15.10
2018-11-21T17:33:53.976Z,13.50
2018-11-21T17:36:42.122Z,15.90
2018-11-21T17:42:06.892Z,8.20
2018-11-21T17:44:55.476Z,9.70
2018-11-21T17:47:43.943Z,7.97
2018-11-21T17:50:25.475Z,8.87
2018-11-21T17:52:56.575Z,8.80
2018-11-21T17:55:27.488Z,9.73
2018-11-21T17:57:57.197Z,8.90
2018-11-21T18:00:28.087Z,10.23
2018-11-21T18:02:57.423Z,16.40
2018-11-21T18:05:28.444Z,15.40
2018-11-21T18:08:17.003Z,14.33
2018-11-21T18:11:05.863Z,10.60
2018-11-21T18:16:35.349Z,9.60
2018-11-21T18:19:05.022Z,13.30
2018-11-21T18:21:53.271Z,27.80
2018-11-21T18:24:22.775Z,8.87
2018-11-21T18:29:45.997Z,7.50
2018-11-21T18:32:34.572Z,8.70
2018-11-21T18:35:17.685Z,7.70
2018-11-21T18:37:47.953Z,9.47
2018-11-21T18:40:36.377Z,10.20
2018-11-21T18:46:15.564Z,13.17
2018-11-21T18:49:04.077Z,10.47
2018-11-21T18:51:33.551Z,10.40
2018-11-21T18:54:21.738Z,10.30
2018-11-21T18:57:29.490Z,18.77
2018-11-21T19:00:19.598Z,12.57
2018-11-21T19:07:58.786Z,9.30
2018-11-21T19:10:28.097Z,8.60
2018-11-21T19:12:57.352Z,7.87
2018-11-21T19:15:26.804Z,8.80
2018-11-21T19:17:56.091Z,9.40
2018-11-21T19:20:25.440Z,10.33
2018-11-21T19:22:54.928Z,7.33
2018-11-21T19:25:24.140Z,6.70
2018-11-21T19:27:53.384Z,12.83
2018-11-21T19:30:41.989Z,6.97
2018-11-21T19:41:34.375Z,6.00
2018-11-21T19:44:22.779Z,6.77
2018-11-21T19:49:57.178Z,6.90
2018-11-21T19:52:26.909Z,5.10
2018-11-21T19:55:15.769Z,7.43
2018-11-21T20:00:58.064Z,8.33
2018-11-21T20:03:46.487Z,7.80
2018-11-21T20:06:16.843Z,7.90
2018-11-21T20:14:24.628Z,7.10
2018-11-21T20:16:54.186Z,6.03
2018-11-21T20:19:23.741Z,4.43
2018-11-21T20:27:48.442Z,7.25
2018-11-21T20:30:20.220Z,6.80
2018-11-21T20:35:44.123Z,7.97
2018-11-21T20:38:13.617Z,9.87
2018-11-21T20:40:43.221Z,10.43
2018-11-21T20:46:07.427Z,14.80
2018-11-21T20:48:55.820Z,7.07
2018-11-21T20:54:30.746Z,5.00
2018-11-21T20:59:53.910Z,5.00
2018-11-21T21:02:42.542Z,4.27
2018-11-21T21:05:14.254Z,3.80
2018-11-21T21:08:02.418Z,5.37
2018-11-21T21:10:33.465Z,6.10
2018-11-21T21:13:22.059Z,4.10
2018-11-21T21:15:51.638Z,5.00
2018-11-21T21:18:21.217Z,5.10
2018-11-21T21:21:15.655Z,4.90
2018-11-21T21:23:58.386Z,4.50
2018-11-21T21:29:46.626Z,3.58
2018-11-21T21:35:29.707Z,4.42
2018-11-21T21:38:18.338Z,4.73
2018-11-21T21:40:48.318Z,4.23
2018-11-21T21:43:36.484Z,4.10
2018-11-21T21:46:25.171Z,4.57
2018-11-21T21:49:13.703Z,4.10
2018-11-21T21:52:02.194Z,4.23
2018-11-21T21:54:50.440Z,3.50
2018-11-21T21:57:19.935Z,4.13
2018-11-21T22:00:08.256Z,6.03
2018-11-21T22:05:52.462Z,3.67
2018-11-21T22:08:22.007Z,3.50
2018-11-21T22:11:10.602Z,3.90
2018-11-21T22:13:58.955Z,3.37
2018-11-21T22:16:28.566Z,4.30
2018-11-21T22:19:17.106Z,4.03
2018-11-21T22:22:05.639Z,3.97
2018-11-21T22:24:54.217Z,3.30
2018-11-21T22:27:42.591Z,3.40
2018-11-21T22:38:34.350Z,4.22
2018-11-21T22:41:03.930Z,3.55
2018-11-21T22:43:52.072Z,3.17
2018-11-21T22:46:21.669Z,3.45
2018-11-21T22:49:10.270Z,3.83
2018-11-21T22:51:58.920Z,4.30
2018-11-21T22:57:22.098Z,3.70
2018-11-21T23:00:48.442Z,3.30
2018-11-21T23:03:29.152Z,3.52
